Time;durP1;ratioP1;P1;durP2;ratioP2;P2;SDS_P1;SDS_P2;PMS_P1;PMS_P2;Temp;Humidity;BMP_temperature;BMP_pressure;BME280_temperature;BME280_humidity;BME280_pressure;Samples;Min_cycle;Max_cycle;Signal;HPM_P1;HPM_P2
2022/03/11 00:01:24;;;;;;;10.75;3.78;;;;;;;-3.95;69.24;95378.13;4946755;28;20228;-80
2022/03/11 00:03:51;;;;;;;5.95;3.28;;;;;;;-3.95;70.49;95381.59;4933914;29;20207;-80
2022/03/11 00:06:18;;;;;;;13.13;4.55;;;;;;;-4.11;70.69;95379.53;4946756;29;20673;-80
2022/03/11 00:08:45;;;;;;;11.40;4.97;;;;;;;-4.32;69.98;95375.44;4941635;29;20574;-80
2022/03/11 00:11:11;;;;;;;13.10;4.43;;;;;;;-4.38;71.27;95372.88;4939828;28;20207;-81
2022/03/11 00:13:39;;;;;;;7.85;3.58;;;;;;;-4.18;70.55;95377.97;4944409;28;20725;-80
2022/03/11 00:16:07;;;;;;;10.45;3.47;;;;;;;-4.13;70.06;95370.19;4946507;29;20876;-80
2022/03/11 00:18:34;;;;;;;16.10;4.60;;;;;;;-4.10;69.46;95367.13;4933510;29;20211;-80
2022/03/11 00:21:01;;;;;;;15.57;4.70;;;;;;;-4.06;69.87;95378.88;4946257;29;20285;-82
2022/03/11 00:23:28;;;;;;;9.15;4.88;;;;;;;-4.14;70.84;95374.69;4942522;29;20651;-80
2022/03/11 00:25:55;;;;;;;8.00;3.97;;;;;;;-4.13;70.46;95364.91;4937333;28;20278;-81
2022/03/11 00:28:22;;;;;;;8.50;3.78;;;;;;;-4.16;70.20;95370.63;4941607;29;20297;-80
2022/03/11 00:30:50;;;;;;;9.52;4.13;;;;;;;-4.10;70.53;95365.25;4937521;28;20223;-81
2022/03/11 00:33:17;;;;;;;6.55;3.90;;;;;;;-4.00;70.08;95367.44;4942218;29;20239;-82
2022/03/11 00:35:44;;;;;;;11.18;4.72;;;;;;;-4.00;69.65;95348.91;4939509;28;20246;-80
2022/03/11 00:38:11;;;;;;;15.68;5.25;;;;;;;-4.00;69.67;95354.19;4944170;28;20573;-80
2022/03/11 00:40:38;;;;;;;8.65;3.88;;;;;;;-4.06;70.15;95355.06;4952503;28;20194;-82
2022/03/11 00:43:04;;;;;;;9.68;4.38;;;;;;;-4.14;70.92;95347.41;4962088;28;20217;-82
2022/03/11 00:45:31;;;;;;;8.07;4.72;;;;;;;-4.14;71.07;95355.34;4939660;28;20608;-81
2022/03/11 00:48:00;;;;;;;6.78;4.85;;;;;;;-4.22;71.49;95352.97;4942735;28;20211;-81
2022/03/11 00:50:26;;;;;;;9.32;3.92;;;;;;;-4.18;71.29;95356.81;4946395;29;20659;-81
2022/03/11 00:52:54;;;;;;;9.00;3.88;;;;;;;-4.31;70.80;95357.75;4944128;29;20207;-82
2022/03/11 00:55:20;;;;;;;10.63;4.63;;;;;;;-4.22;70.05;95351.13;4939633;28;20246;-82
2022/03/11 00:57:47;;;;;;;5.97;3.50;;;;;;;-4.13;70.68;95349.84;4944578;28;20690;-81
2022/03/11 01:00:15;;;;;;;7.53;2.88;;;;;;;-4.08;69.49;95346.53;4949926;29;20207;-80
2022/03/11 01:02:42;;;;;;;6.70;3.65;;;;;;;-4.21;70.30;95346.66;4937586;29;20223;-81
2022/03/11 01:05:11;;;;;;;11.75;4.20;;;;;;;-4.34;71.33;95356.34;4949397;29;20204;-81
2022/03/11 01:07:38;;;;;;;8.57;4.45;;;;;;;-4.40;71.83;95353.75;4948184;29;20207;-81
2022/03/11 01:10:06;;;;;;;5.85;3.03;;;;;;;-4.31;70.68;95355.91;4943149;28;20226;-81
2022/03/11 01:12:33;;;;;;;5.85;2.88;;;;;;;-4.46;70.42;95355.44;4944467;28;20208;-81
2022/03/11 01:15:00;;;;;;;6.40;3.40;;;;;;;-4.52;70.97;95363.44;4949550;29;20235;-81
2022/03/11 01:17:27;;;;;;;9.68;3.67;;;;;;;-4.56;71.80;95354.28;4948488;29;20211;-81
2022/03/11 01:19:54;;;;;;;9.05;3.60;;;;;;;-4.62;71.27;95361.25;4942750;28;20221;-81
2022/03/11 01:22:24;;;;;;;5.57;3.58;;;;;;;-4.58;71.07;95356.34;4944318;28;20219;-80
2022/03/11 01:24:51;;;;;;;6.70;3.30;;;;;;;-4.54;72.12;95353.06;4936886;29;20219;-81
2022/03/11 01:27:17;;;;;;;6.25;3.63;;;;;;;-4.52;70.96;95361.59;4936725;29;20618;-80
2022/03/11 01:29:45;;;;;;;9.13;4.03;;;;;;;-4.49;70.02;95358.50;4942758;29;20207;-81
2022/03/11 01:32:11;;;;;;;8.05;3.35;;;;;;;-4.52;69.23;95358.13;4942268;28;20235;-79
2022/03/11 01:34:38;;;;;;;5.97;3.35;;;;;;;-4.55;69.42;95351.44;4948961;29;20227;-80
2022/03/11 01:37:05;;;;;;;13.15;4.00;;;;;;;-4.48;69.43;95362.75;4949212;29;20209;-80
2022/03/11 01:39:34;;;;;;;5.90;4.10;;;;;;;-4.43;69.38;95354.19;4936196;29;20208;-81
2022/03/11 01:42:01;;;;;;;6.75;3.83;;;;;;;-4.43;69.45;95359.47;4963189;28;20669;-80
2022/03/11 01:44:28;;;;;;;6.88;2.58;;;;;;;-4.54;69.51;95355.72;4948119;28;20215;-80
2022/03/11 01:46:55;;;;;;;5.05;2.90;;;;;;;-4.42;69.06;95351.34;4949095;29;20214;-81
2022/03/11 01:49:23;;;;;;;3.95;2.53;;;;;;;-4.49;70.10;95358.50;4935776;29;20801;-81
2022/03/11 01:51:51;;;;;;;6.80;3.58;;;;;;;-4.58;69.70;95346.59;4937411;29;20702;-81
2022/03/11 01:54:17;;;;;;;10.07;4.13;;;;;;;-4.61;71.53;95357.59;4947408;28;20234;-82
2022/03/11 01:56:46;;;;;;;6.07;3.10;;;;;;;-4.67;70.95;95363.75;4949202;29;20249;-82
2022/03/11 01:59:13;;;;;;;8.85;3.72;;;;;;;-4.78;71.81;95352.00;4944914;29;20561;-81
2022/03/11 02:01:40;;;;;;;6.55;3.47;;;;;;;-4.66;71.40;95349.50;4942410;28;20247;-81
2022/03/11 02:04:07;;;;;;;6.20;2.15;;;;;;;-4.80;71.65;95354.09;4954052;29;20689;-80
2022/03/11 02:06:35;;;;;;;8.23;3.50;;;;;;;-4.94;70.69;95354.38;4941986;28;20218;-81
2022/03/11 02:09:04;;;;;;;7.57;4.32;;;;;;;-5.04;70.90;95358.28;4944868;28;20644;-81
2022/03/11 02:11:31;;;;;;;3.42;2.75;;;;;;;-5.21;70.62;95351.91;4952286;29;20218;-80
2022/03/11 02:14:01;;;;;;;5.00;2.78;;;;;;;-5.37;70.76;95358.47;4944719;28;20302;-81
2022/03/11 02:16:29;;;;;;;6.35;2.38;;;;;;;-5.50;72.19;95368.28;4948425;29;20711;-81
2022/03/11 02:18:59;;;;;;;7.85;3.97;;;;;;;-5.60;73.78;95363.44;4946515;29;20207;-81
2022/03/11 02:21:27;;;;;;;17.38;8.63;;;;;;;-5.50;73.88;95363.00;4941443;28;20651;-81
2022/03/11 02:23:59;;;;;;;11.30;6.20;;;;;;;-5.38;72.66;95361.31;4955023;28;20619;-81
2022/03/11 02:26:29;;;;;;;8.85;3.30;;;;;;;-5.45;71.90;95366.63;4942281;28;20191;-81
2022/03/11 02:28:58;;;;;;;26.65;11.65;;;;;;;-5.54;72.89;95367.88;4941876;28;20204;-80
2022/03/11 02:31:29;;;;;;;6.43;3.35;;;;;;;-5.58;72.07;95363.22;4941835;29;20199;-81
2022/03/11 02:34:01;;;;;;;4.68;2.30;;;;;;;-5.46;72.55;95366.81;4940980;28;20707;-81
2022/03/11 02:36:28;;;;;;;6.60;2.65;;;;;;;-5.58;73.18;95364.03;4952890;29;20234;-80
2022/03/11 02:38:57;;;;;;;8.02;3.83;;;;;;;-5.59;71.94;95369.53;4941390;28;20210;-80
2022/03/11 02:41:25;;;;;;;5.35;3.10;;;;;;;-5.62;72.12;95376.06;4954548;28;20214;-81
2022/03/11 02:43:52;;;;;;;6.70;3.22;;;;;;;-5.73;72.83;95388.03;4954250;28;20199;-80
2022/03/11 02:46:19;;;;;;;10.32;3.78;;;;;;;-5.74;73.38;95372.44;4944804;28;20210;-79
2022/03/11 02:48:46;;;;;;;4.45;2.50;;;;;;;-5.68;74.75;95383.97;4950964;29;20207;-81
2022/03/11 02:51:13;;;;;;;5.40;3.22;;;;;;;-5.72;73.92;95373.84;4944542;28;20220;-81
2022/03/11 02:53:41;;;;;;;5.15;2.42;;;;;;;-5.57;74.23;95383.31;4947364;29;20212;-81
2022/03/11 02:56:10;;;;;;;3.80;2.40;;;;;;;-5.65;73.69;95381.75;4944573;29;20266;-81
2022/03/11 02:58:37;;;;;;;4.55;2.50;;;;;;;-5.64;72.82;95382.56;4937650;28;20246;-81
2022/03/11 03:01:09;;;;;;;4.63;3.28;;;;;;;-5.60;73.13;95383.75;4945632;28;20226;-81
2022/03/11 03:03:36;;;;;;;3.97;2.10;;;;;;;-5.60;74.02;95386.41;4941390;28;20199;-81
2022/03/11 03:06:03;;;;;;;5.20;2.95;;;;;;;-5.64;72.69;95382.56;4942625;28;20204;-81
2022/03/11 03:08:30;;;;;;;6.63;2.85;;;;;;;-5.67;74.09;95380.31;4946981;29;20211;-81
2022/03/11 03:11:01;;;;;;;9.88;3.40;;;;;;;-5.77;74.66;95389.50;4935050;29;20556;-81
2022/03/11 03:13:30;;;;;;;2.70;2.03;;;;;;;-5.50;74.30;95378.84;4947952;28;20251;-81
2022/03/11 03:15:57;;;;;;;5.47;2.75;;;;;;;-5.36;73.45;95380.41;4934547;29;20250;-81
2022/03/11 03:18:24;;;;;;;6.78;3.28;;;;;;;-5.39;72.53;95370.25;4947724;29;20211;-81
2022/03/11 03:20:51;;;;;;;7.75;3.85;;;;;;;-5.48;72.75;95384.72;4947012;29;20207;-81
2022/03/11 03:23:18;;;;;;;4.22;2.35;;;;;;;-5.38;73.84;95390.38;4941825;29;20202;-81
2022/03/11 03:25:47;;;;;;;5.80;3.22;;;;;;;-5.47;73.75;95383.72;4940785;28;20207;-81
2022/03/11 03:28:14;;;;;;;6.15;2.90;;;;;;;-5.61;73.81;95380.31;4946590;28;20211;-81
2022/03/11 03:30:42;;;;;;;3.05;2.50;;;;;;;-5.54;73.67;95386.38;4946920;29;20728;-81
2022/03/11 03:33:10;;;;;;;5.72;2.67;;;;;;;-5.58;73.76;95386.97;4941904;29;20239;-82
2022/03/11 03:35:37;;;;;;;7.30;2.97;;;;;;;-5.54;73.48;95377.63;4940456;28;20321;-81
2022/03/11 03:38:03;;;;;;;9.25;3.22;;;;;;;-5.49;73.55;95380.47;4945912;28;20204;-81
2022/03/11 03:40:33;;;;;;;6.43;2.90;;;;;;;-5.37;73.02;95389.34;4948426;28;20589;-81
2022/03/11 03:43:00;;;;;;;7.25;2.88;;;;;;;-5.45;73.62;95386.94;4953869;28;20207;-82
2022/03/11 03:45:27;;;;;;;7.13;3.17;;;;;;;-5.46;73.35;95380.84;4950487;28;20211;-82
2022/03/11 03:47:55;;;;;;;8.07;3.90;;;;;;;-5.34;72.93;95383.66;4943596;29;20210;-81
2022/03/11 03:50:22;;;;;;;12.98;4.75;;;;;;;-5.39;72.39;95380.81;4940366;28;20586;-82
2022/03/11 03:52:49;;;;;;;16.42;6.20;;;;;;;-5.72;72.61;95381.75;4953652;28;20214;-81
2022/03/11 03:55:16;;;;;;;10.80;4.47;;;;;;;-5.64;73.11;95382.56;4939870;28;20227;-81
2022/03/11 03:57:43;;;;;;;16.20;5.22;;;;;;;-5.74;73.24;95389.06;4949438;28;20686;-83
2022/03/11 04:00:11;;;;;;;7.72;3.75;;;;;;;-5.62;72.87;95386.59;4953090;28;20223;-82
2022/03/11 04:02:44;;;;;;;8.02;3.45;;;;;;;-5.62;73.55;95373.41;4942872;28;20693;-82
2022/03/11 04:05:13;;;;;;;5.82;3.25;;;;;;;-5.54;73.10;95393.47;4939672;29;20198;-83
2022/03/11 04:07:41;;;;;;;9.02;3.83;;;;;;;-5.60;72.35;95394.31;4941025;28;20552;-82
2022/03/11 04:10:08;;;;;;;3.90;2.45;;;;;;;-5.67;71.74;95396.16;4946091;29;20204;-82
2022/03/11 04:12:35;;;;;;;5.95;3.22;;;;;;;-5.70;73.32;95401.84;4946159;28;20242;-82
2022/03/11 04:15:02;;;;;;;6.20;3.22;;;;;;;-5.74;72.93;95404.88;4940312;28;20213;-82
2022/03/11 04:17:29;;;;;;;9.00;5.50;;;;;;;-5.75;74.51;95400.66;4940404;28;20210;-81
2022/03/11 04:19:56;;;;;;;7.05;4.03;;;;;;;-5.74;74.07;95402.25;4946635;29;20200;-83
2022/03/11 04:22:24;;;;;;;27.40;10.10;;;;;;;-5.73;74.33;95403.88;4946112;29;20444;-80
2022/03/11 04:24:51;;;;;;;9.02;5.38;;;;;;;-5.76;73.98;95411.41;4934467;29;20615;-84
2022/03/11 04:27:18;;;;;;;9.13;4.60;;;;;;;-5.84;74.36;95409.78;4946118;29;20227;-80
2022/03/11 04:29:45;;;;;;;9.48;4.15;;;;;;;-5.74;74.62;95419.94;4952972;28;20207;-81
2022/03/11 04:32:12;;;;;;;6.72;3.78;;;;;;;-5.61;73.50;95416.44;4954068;28;20234;-81
2022/03/11 04:34:39;;;;;;;14.77;5.22;;;;;;;-5.61;73.40;95421.72;4957055;28;20190;-83
2022/03/11 04:37:06;;;;;;;13.95;7.35;;;;;;;-5.68;72.90;95420.91;4943587;28;20603;-80
2022/03/11 04:39:34;;;;;;;13.02;6.80;;;;;;;-5.74;72.89;95420.72;4949482;28;20204;-78
2022/03/11 04:42:01;;;;;;;7.25;3.35;;;;;;;-5.81;72.84;95419.94;4964187;28;20214;-80
2022/03/11 04:44:28;;;;;;;4.22;2.67;;;;;;;-5.79;72.37;95420.53;4949185;28;20215;-80
2022/03/11 04:46:55;;;;;;;6.68;3.40;;;;;;;-5.93;72.65;95412.91;4950058;29;20213;-76
2022/03/11 04:49:21;;;;;;;9.45;4.20;;;;;;;-5.94;72.89;95414.72;4945135;29;20207;-77
2022/03/11 04:51:48;;;;;;;4.20;2.60;;;;;;;-6.01;73.57;95423.66;4943563;28;20218;-77
2022/03/11 04:54:15;;;;;;;7.05;3.40;;;;;;;-5.99;74.42;95427.69;4948077;28;20215;-74
2022/03/11 04:56:43;;;;;;;8.02;3.78;;;;;;;-6.05;73.53;95428.53;4949585;29;20702;-82
2022/03/11 04:59:11;;;;;;;8.40;3.35;;;;;;;-5.99;73.69;95424.25;4946153;28;20223;-80
2022/03/11 05:01:37;;;;;;;8.52;3.70;;;;;;;-5.82;73.47;95418.31;4943887;28;20576;-77
2022/03/11 05:04:04;;;;;;;13.98;4.07;;;;;;;-5.66;72.37;95418.88;4946974;28;20207;-79
2022/03/11 05:06:31;;;;;;;6.43;3.15;;;;;;;-5.67;72.43;95419.91;4953138;29;20256;-79
2022/03/11 05:08:58;;;;;;;7.72;4.55;;;;;;;-5.65;72.68;95417.88;4946994;28;20208;-79
2022/03/11 05:11:25;;;;;;;14.23;5.43;;;;;;;-5.50;72.48;95423.72;4948819;28;20242;-80
2022/03/11 05:13:53;;;;;;;11.15;4.72;;;;;;;-5.62;73.53;95428.00;4946595;29;20207;-79
2022/03/11 05:16:20;;;;;;;9.48;2.85;;;;;;;-5.47;72.37;95431.22;4943100;28;20234;-80
2022/03/11 05:18:47;;;;;;;11.05;4.82;;;;;;;-5.44;72.45;95436.06;4945605;28;20207;-79
2022/03/11 05:21:14;;;;;;;5.95;4.03;;;;;;;-5.50;72.66;95431.63;4949215;29;20203;-79
2022/03/11 05:23:41;;;;;;;19.02;4.60;;;;;;;-5.43;73.74;95440.31;4947302;29;20199;-80
2022/03/11 05:26:24;;;;;;;4.40;2.40;;;;;;;-5.48;73.75;95448.06;4954886;28;20750;-79
2022/03/11 05:28:54;;;;;;;4.00;3.20;;;;;;;-5.86;73.17;95455.84;4954643;28;20618;-80
2022/03/11 05:31:22;;;;;;;9.30;3.38;;;;;;;-6.09;72.98;95464.22;4948206;28;20314;-79
2022/03/11 05:33:49;;;;;;;4.57;2.55;;;;;;;-6.13;73.63;95465.63;4949980;29;20235;-81
2022/03/11 05:36:16;;;;;;;24.25;9.38;;;;;;;-5.96;73.23;95453.66;4948236;28;20235;-79
2022/03/11 05:38:43;;;;;;;4.30;3.05;;;;;;;-5.90;72.94;95462.59;4949638;29;20199;-80
2022/03/11 05:41:10;;;;;;;5.25;3.15;;;;;;;-5.80;72.82;95463.75;4951745;28;20259;-81
2022/03/11 05:43:37;;;;;;;6.82;4.18;;;;;;;-5.45;73.28;95466.09;4974256;28;20215;-80
2022/03/11 05:46:06;;;;;;;10.15;3.55;;;;;;;-5.21;72.90;95462.81;4967196;28;20705;-78
2022/03/11 05:48:33;;;;;;;9.13;4.47;;;;;;;-4.76;71.05;95460.13;4942967;28;20219;-79
2022/03/11 05:51:00;;;;;;;9.85;4.07;;;;;;;-4.47;70.26;95464.84;4946628;28;20204;-80
2022/03/11 05:53:27;;;;;;;11.25;5.45;;;;;;;-4.27;69.30;95470.00;4938338;29;20207;-79
2022/03/11 05:55:54;;;;;;;10.02;3.75;;;;;;;-3.97;68.89;95462.25;4946623;28;20255;-79
2022/03/11 05:58:21;;;;;;;14.60;4.68;;;;;;;-3.72;68.96;95462.22;4948803;28;20254;-81
2022/03/11 06:00:49;;;;;;;7.00;4.03;;;;;;;-3.56;68.29;95455.56;4944733;29;20203;-80
2022/03/11 06:03:17;;;;;;;8.60;3.90;;;;;;;-3.25;68.17;95458.03;4942373;28;20666;-79
2022/03/11 06:05:45;;;;;;;12.25;4.28;;;;;;;-2.67;66.44;95449.59;4945809;28;20845;-80
2022/03/11 06:08:12;;;;;;;13.15;4.65;;;;;;;-2.29;66.53;95451.91;4949111;29;20678;-79
2022/03/11 06:10:39;;;;;;;9.38;5.38;;;;;;;-1.88;65.05;95456.34;4936786;29;20223;-79
2022/03/11 06:13:06;;;;;;;13.85;5.30;;;;;;;-1.56;64.72;95440.91;4948757;29;20239;-80
2022/03/11 06:15:33;;;;;;;13.27;4.72;;;;;;;-1.03;62.54;95450.53;4945586;29;20286;-80
2022/03/11 06:18:00;;;;;;;15.48;7.55;;;;;;;-0.58;61.16;95458.63;4942138;28;20239;-80
2022/03/11 06:20:30;;;;;;;16.58;7.72;;;;;;;-0.46;60.57;95454.06;4944551;28;20255;-80
2022/03/11 06:22:57;;;;;;;15.60;8.02;;;;;;;-0.42;61.04;95457.88;4939466;29;20199;-79
2022/03/11 06:25:24;;;;;;;12.63;7.03;;;;;;;-0.25;59.82;95452.56;4954329;28;20203;-80
2022/03/11 06:27:51;;;;;;;14.25;7.32;;;;;;;-0.11;60.56;95453.88;4949873;28;20663;-80
2022/03/11 06:30:18;;;;;;;11.35;4.82;;;;;;;-0.31;60.89;95459.66;4945985;28;20238;-81
2022/03/11 06:32:46;;;;;;;10.80;6.10;;;;;;;-1.13;61.53;95467.91;4941445;28;20235;-79
2022/03/11 06:35:15;;;;;;;12.05;5.50;;;;;;;-1.59;62.28;95471.38;4954786;28;20218;-81
2022/03/11 06:37:45;;;;;;;9.05;5.20;;;;;;;-1.40;63.13;95476.59;4953074;29;20226;-81
2022/03/11 06:40:13;;;;;;;12.02;6.30;;;;;;;-1.10;61.52;95478.06;4941945;28;20591;-81
2022/03/11 06:42:42;;;;;;;6.00;3.42;;;;;;;-1.38;61.09;95479.84;4967560;28;20213;-80
2022/03/11 06:45:10;;;;;;;4.40;2.58;;;;;;;-2.06;63.14;95489.13;4954217;28;20207;-80
2022/03/11 06:47:37;;;;;;;5.45;2.83;;;;;;;-2.42;64.20;95483.91;4954649;28;20210;-79
2022/03/11 06:50:05;;;;;;;9.98;4.30;;;;;;;-2.57;65.10;95486.97;4940622;28;20207;-81
2022/03/11 06:52:33;;;;;;;7.47;4.70;;;;;;;-1.64;63.72;95476.56;4942962;29;20207;-81
2022/03/11 06:55:02;;;;;;;7.63;3.80;;;;;;;-0.55;60.12;95466.94;4938824;28;20842;-81
2022/03/11 06:57:31;;;;;;;6.78;3.65;;;;;;;-0.34;58.30;95475.28;4943905;29;20231;-79
2022/03/11 06:59:58;;;;;;;13.80;6.03;;;;;;;0.28;57.19;95473.41;4952109;28;20227;-80
2022/03/11 07:02:25;;;;;;;18.23;5.00;;;;;;;1.07;55.13;95466.06;4935003;29;20651;-80
2022/03/11 07:04:52;;;;;;;9.65;6.03;;;;;;;1.02;57.07;95468.66;4947653;29;20674;-79
2022/03/11 07:07:19;;;;;;;8.40;4.65;;;;;;;1.56;52.69;95463.41;4944224;29;20207;-81
2022/03/11 07:09:46;;;;;;;10.60;5.93;;;;;;;2.72;52.45;95467.16;4941076;28;20204;-80
2022/03/11 07:12:14;;;;;;;12.75;5.45;;;;;;;1.65;51.15;95465.38;4945076;28;20228;-80
2022/03/11 07:14:43;;;;;;;6.70;3.67;;;;;;;0.89;52.92;95474.34;4950297;29;20211;-80
2022/03/11 07:17:10;;;;;;;12.75;6.60;;;;;;;0.90;54.08;95475.94;4944012;28;20785;-81
2022/03/11 07:19:37;;;;;;;18.00;7.88;;;;;;;1.20;54.45;95479.03;4947531;29;20207;-80
2022/03/11 07:22:06;;;;;;;11.20;5.50;;;;;;;1.23;54.99;95473.16;4944678;29;20199;-80
2022/03/11 07:24:33;;;;;;;11.63;5.28;;;;;;;0.09;54.74;95490.69;4949823;28;20200;-81
2022/03/11 07:27:00;;;;;;;6.78;3.17;;;;;;;-1.58;57.02;95507.53;4943917;29;20214;-83
2022/03/11 07:29:29;;;;;;;7.65;3.30;;;;;;;-2.66;59.76;95502.41;4939980;28;20286;-78
2022/03/11 07:31:56;;;;;;;4.95;3.08;;;;;;;-2.96;60.55;95499.69;4943033;28;20215;-79
2022/03/11 07:34:23;;;;;;;2.30;1.50;;;;;;;-3.14;62.01;95499.69;4946548;29;20224;-80
2022/03/11 07:36:51;;;;;;;5.82;2.42;;;;;;;-2.66;61.25;95496.28;4945064;29;20262;-81
2022/03/11 07:39:20;;;;;;;1.95;1.83;;;;;;;-1.95;58.60;95495.47;4940549;28;20547;-79
2022/03/11 07:41:48;;;;;;;14.07;2.75;;;;;;;-2.16;58.63;95497.63;4953458;28;20295;-80
2022/03/11 07:44:15;;;;;;;4.15;1.60;;;;;;;-2.09;58.91;95496.72;4953064;28;20293;-80
2022/03/11 07:46:44;;;;;;;5.80;2.92;;;;;;;-1.16;57.70;95478.19;4942246;28;20211;-81
2022/03/11 07:49:12;;;;;;;5.57;2.88;;;;;;;-0.49;56.87;95486.44;4940491;29;20215;-81
2022/03/11 07:51:39;;;;;;;8.35;4.15;;;;;;;-0.15;54.23;95480.19;4938360;29;20667;-81
2022/03/11 07:54:06;;;;;;;7.50;4.10;;;;;;;-0.65;55.46;95495.19;4941142;29;20218;-80
2022/03/11 07:56:33;;;;;;;6.03;2.70;;;;;;;-0.58;54.95;95486.03;4952315;28;20231;-78
2022/03/11 07:59:02;;;;;;;3.55;2.65;;;;;;;-1.01;55.46;95491.00;4942735;28;20231;-79
2022/03/11 08:01:30;;;;;;;6.60;2.97;;;;;;;-0.92;55.26;95492.25;4957527;28;20594;-80
2022/03/11 08:03:58;;;;;;;0.70;0.70;;;;;;;-0.75;54.75;95491.28;4941276;29;20262;-80
2022/03/11 08:06:25;;;;;;;5.82;2.97;;;;;;;-0.98;55.87;95486.03;4940227;28;20204;-81
2022/03/11 08:08:52;;;;;;;5.03;2.38;;;;;;;-1.00;55.88;95493.41;4945395;28;20215;-82
2022/03/11 08:11:19;;;;;;;4.35;2.33;;;;;;;-1.15;56.30;95477.13;4946896;28;20721;-81
2022/03/11 08:13:46;;;;;;;1.77;1.13;;;;;;;-1.85;56.64;95495.72;4958663;28;20205;-79
2022/03/11 08:16:13;;;;;;;8.05;2.58;;;;;;;-2.14;58.32;95497.41;4968259;28;20210;-80
2022/03/11 08:18:41;;;;;;;3.35;2.15;;;;;;;-2.05;57.78;95495.25;4944626;28;20219;-79
2022/03/11 08:21:10;;;;;;;5.68;2.88;;;;;;;-1.56;58.29;95494.84;4948573;29;20238;-81
2022/03/11 08:23:39;;;;;;;5.70;2.70;;;;;;;-0.75;55.95;95480.63;4952874;28;20202;-79
2022/03/11 08:26:06;;;;;;;6.03;2.85;;;;;;;-0.96;54.98;95491.13;4936501;28;20218;-81
2022/03/11 08:28:33;;;;;;;3.45;2.55;;;;;;;-0.59;54.87;95491.59;4943658;29;20211;-80
2022/03/11 08:31:00;;;;;;;12.05;4.45;;;;;;;-0.42;54.56;95482.63;4939809;28;20773;-80
2022/03/11 08:33:30;;;;;;;6.13;3.30;;;;;;;0.01;54.00;95483.88;4946937;28;20243;-79
2022/03/11 08:35:58;;;;;;;5.15;3.08;;;;;;;0.50;52.94;95478.84;4947621;28;20243;-79
2022/03/11 08:38:26;;;;;;;7.15;4.22;;;;;;;1.09;52.73;95484.47;4944502;29;20234;-78
2022/03/11 08:40:53;;;;;;;10.77;3.90;;;;;;;2.03;50.96;95483.16;4939722;28;20207;-76
2022/03/11 08:43:22;;;;;;;4.65;2.58;;;;;;;2.61;48.44;95470.78;4951967;28;20667;-77
2022/03/11 08:45:49;;;;;;;7.07;3.42;;;;;;;1.95;47.89;95472.91;4945929;28;20694;-79
2022/03/11 08:48:16;;;;;;;6.68;3.25;;;;;;;2.05;47.79;95473.00;4944817;29;20574;-75
2022/03/11 08:50:43;;;;;;;16.05;9.45;;;;;;;1.45;48.36;95467.84;4939952;28;20230;-77
2022/03/11 08:53:10;;;;;;;6.53;3.67;;;;;;;1.90;48.08;95469.41;4939860;28;20311;-76
2022/03/11 08:55:38;;;;;;;6.45;3.25;;;;;;;1.61;46.81;95471.50;4945869;29;20663;-75
2022/03/11 08:58:05;;;;;;;12.05;6.15;;;;;;;0.51;50.80;95473.28;4945721;28;20230;-76
2022/03/11 09:00:33;;;;;;;5.57;3.25;;;;;;;0.92;50.36;95463.19;4939314;29;20210;-76
2022/03/11 09:02:59;;;;;;;9.15;3.88;;;;;;;1.23;49.68;95461.72;4939216;28;20207;-75
2022/03/11 09:05:26;;;;;;;4.65;3.10;;;;;;;1.87;47.25;95470.69;4952035;28;20211;-78
2022/03/11 09:07:54;;;;;;;5.50;3.40;;;;;;;2.79;45.24;95454.34;4939654;28;20362;-79
2022/03/11 09:10:21;;;;;;;5.43;2.95;;;;;;;2.68;45.37;95454.53;4944689;28;20622;-79
2022/03/11 09:12:49;;;;;;;3.50;2.53;;;;;;;2.79;46.05;95457.00;4934297;29;20216;-79
2022/03/11 09:15:16;;;;;;;4.68;2.92;;;;;;;2.63;47.07;95452.63;4945051;28;20214;-79
2022/03/11 09:17:45;;;;;;;6.53;3.40;;;;;;;2.77;44.40;95453.78;4947451;28;20227;-79
2022/03/11 09:20:13;;;;;;;5.00;3.58;;;;;;;3.14;46.23;95442.22;4955739;28;20570;-79
2022/03/11 09:22:40;;;;;;;3.08;1.55;;;;;;;3.76;42.91;95438.69;4943242;28;20733;-77
2022/03/11 09:25:09;;;;;;;5.68;3.22;;;;;;;2.71;43.71;95454.03;4956222;28;20207;-79
2022/03/11 09:27:36;;;;;;;7.80;4.25;;;;;;;2.95;44.50;95449.88;4942953;28;20211;-79
2022/03/11 09:30:07;;;;;;;3.85;2.92;;;;;;;2.73;47.71;95447.31;4946367;28;20590;-81
2022/03/11 09:32:34;;;;;;;6.97;3.47;;;;;;;2.32;45.52;95456.16;4939282;29;20242;-81
2022/03/11 09:35:01;;;;;;;5.75;3.78;;;;;;;2.76;44.22;95451.38;4956009;28;20245;-80
2022/03/11 09:37:28;;;;;;;5.65;3.20;;;;;;;2.71;47.21;95449.47;4950581;28;20231;-80
2022/03/11 09:39:55;;;;;;;8.27;3.65;;;;;;;2.80;44.71;95442.56;4946669;29;20203;-80
2022/03/11 09:42:22;;;;;;;6.72;3.78;;;;;;;3.01;45.38;95445.34;4951401;28;20200;-81
2022/03/11 09:44:52;;;;;;;8.75;4.32;;;;;;;2.90;44.70;95441.00;4947551;29;20203;-80
2022/03/11 09:47:22;;;;;;;12.73;4.68;;;;;;;3.25;44.25;95457.28;4942801;28;20210;-80
2022/03/11 09:49:49;;;;;;;6.28;3.03;;;;;;;3.08;43.66;95448.63;4943710;28;20208;-80
2022/03/11 09:52:17;;;;;;;11.23;7.07;;;;;;;2.73;44.56;95446.56;4948249;29;20667;-80
2022/03/11 09:54:46;;;;;;;4.72;2.83;;;;;;;1.93;43.30;95455.50;4947925;29;20211;-82
2022/03/11 09:57:16;;;;;;;3.90;2.63;;;;;;;2.00;43.56;95448.94;4942129;28;20263;-80
2022/03/11 09:59:43;;;;;;;7.80;4.03;;;;;;;2.44;43.34;95444.22;4942309;28;20192;-80
2022/03/11 10:02:13;;;;;;;11.73;3.90;;;;;;;2.76;43.68;95425.41;4942526;29;20604;-80
2022/03/11 10:04:48;;;;;;;6.43;3.65;;;;;;;2.44;42.87;95446.88;4955208;28;20207;-80
2022/03/11 10:07:24;;;;;;;8.30;3.95;;;;;;;2.38;44.13;95439.06;4946691;28;20196;-80
2022/03/11 10:09:51;;;;;;;6.15;3.42;;;;;;;2.70;42.75;95437.16;4947683;28;20231;-80
2022/03/11 10:12:25;;;;;;;4.85;3.00;;;;;;;1.68;45.03;95450.72;4945289;29;20203;-77
2022/03/11 10:15:00;;;;;;;15.02;5.18;;;;;;;1.85;50.87;95456.78;4940719;29;20214;-80
2022/03/11 10:17:27;;;;;;;2.22;1.70;;;;;;;2.02;46.11;95446.81;4943932;28;20238;-79
2022/03/11 10:19:59;;;;;;;7.57;4.55;;;;;;;1.94;44.45;95441.91;4947864;29;20651;-80
2022/03/11 10:22:27;;;;;;;5.72;2.55;;;;;;;1.38;45.49;95444.00;4948153;29;20199;-79
2022/03/11 10:24:55;;;;;;;10.45;4.32;;;;;;;1.62;44.69;95441.88;4948648;28;20204;-80
2022/03/11 10:27:23;;;;;;;5.40;3.25;;;;;;;1.28;45.79;95445.75;4948156;29;20275;-79
2022/03/11 10:29:51;;;;;;;9.30;4.25;;;;;;;1.72;46.33;95441.16;4940355;29;20862;-81
2022/03/11 10:32:24;;;;;;;5.47;3.17;;;;;;;2.53;44.32;95436.50;4941583;28;20229;-81
2022/03/11 10:34:51;;;;;;;9.95;4.32;;;;;;;2.48;45.69;95425.78;4947190;28;20663;-79
2022/03/11 10:37:20;;;;;;;5.20;2.28;;;;;;;1.74;43.22;95449.75;4948049;29;20214;-79
2022/03/11 10:39:48;;;;;;;1.35;1.10;;;;;;;0.92;44.63;95439.19;4943280;29;20210;-79
2022/03/11 10:42:18;;;;;;;6.13;3.70;;;;;;;0.60;45.28;95442.47;4953694;28;20203;-79
2022/03/11 10:44:56;;;;;;;5.82;3.17;;;;;;;0.81;47.25;95440.09;4954550;28;20207;-79
2022/03/11 10:47:25;;;;;;;7.93;3.25;;;;;;;1.46;44.13;95433.94;4941455;28;20676;-80
2022/03/11 10:49:54;;;;;;;7.75;3.40;;;;;;;2.53;43.44;95425.81;4941906;28;20214;-79
2022/03/11 10:52:32;;;;;;;6.40;3.00;;;;;;;2.65;40.09;95433.66;4948077;29;20223;-78
2022/03/11 10:55:02;;;;;;;7.10;3.25;;;;;;;1.89;42.56;95433.88;4947599;29;20532;-76
2022/03/11 10:57:36;;;;;;;2.63;1.83;;;;;;;0.82;44.27;95431.06;4933718;29;20691;-82
2022/03/11 11:00:17;;;;;;;2.25;1.52;;;;;;;-0.05;45.41;95442.25;4933584;29;20691;-78
2022/03/11 11:02:45;;;;;;;5.03;2.63;;;;;;;0.68;48.12;95428.72;4944958;29;20203;-79
2022/03/11 11:05:14;;;;;;;5.53;3.60;;;;;;;1.16;45.10;95416.53;4939872;28;20600;-80
2022/03/11 11:07:44;;;;;;;5.75;3.25;;;;;;;1.38;49.00;95430.66;4942635;28;20203;-78
2022/03/11 11:10:12;;;;;;;6.55;4.60;;;;;;;1.59;48.68;95430.88;4947757;28;20227;-80
2022/03/11 11:12:39;;;;;;;8.95;6.20;;;;;;;2.02;49.89;95414.75;4946582;29;20687;-81
2022/03/11 11:15:08;;;;;;;5.18;3.47;;;;;;;1.76;47.76;95415.56;4941314;28;20205;-80
2022/03/11 11:17:38;;;;;;;5.10;3.05;;;;;;;1.60;49.58;95421.81;4940457;28;20243;-79
2022/03/11 11:20:15;;;;;;;5.45;3.20;;;;;;;1.61;51.15;95418.91;4941567;29;20203;-79
2022/03/11 11:22:45;;;;;;;7.68;4.82;;;;;;;1.67;49.74;95422.41;4940949;28;20203;-79
2022/03/11 11:25:12;;;;;;;7.22;4.80;;;;;;;1.72;50.21;95417.94;4944801;28;20211;-80
2022/03/11 11:27:39;;;;;;;9.38;4.25;;;;;;;1.59;49.07;95417.53;4947468;29;20242;-78
2022/03/11 11:30:09;;;;;;;9.73;4.70;;;;;;;1.63;49.15;95407.97;4943550;29;20226;-79
2022/03/11 11:32:38;;;;;;;5.75;3.72;;;;;;;1.80;48.17;95411.31;4939711;28;20231;-80
2022/03/11 11:35:25;;;;;;;10.80;4.57;;;;;;;1.84;47.56;95396.41;4943564;28;20204;-78
2022/03/11 11:37:55;;;;;;;4.50;2.40;;;;;;;1.80;48.50;95411.31;4947134;29;20275;-79